createdAt,value
2019-02-21T00:01:51.841Z,76.23
2019-02-21T00:04:41.254Z,76.34
2019-02-21T00:07:30.912Z,76.23
2019-02-21T00:10:20.466Z,75.83
2019-02-21T00:13:10.005Z,76.02
2019-02-21T00:15:59.792Z,75.06
2019-02-21T00:18:48.978Z,75.21
2019-02-21T00:21:38.263Z,75.47
2019-02-21T00:24:28.126Z,75.86
2019-02-21T00:27:17.368Z,75.71
2019-02-21T00:30:06.890Z,76.10
2019-02-21T00:32:56.476Z,76.18
2019-02-21T00:35:46.147Z,76.09
2019-02-21T00:38:36.776Z,75.87
2019-02-21T00:41:26.418Z,76.28
2019-02-21T00:44:15.579Z,76.25
2019-02-21T00:47:05.016Z,76.03
2019-02-21T00:49:54.294Z,75.86
2019-02-21T00:52:44.339Z,76.20
2019-02-21T00:55:33.886Z,75.79
2019-02-21T00:58:23.317Z,75.79
2019-02-21T01:01:13.262Z,75.77
2019-02-21T01:04:02.719Z,75.57
2019-02-21T01:06:52.407Z,75.39
2019-02-21T01:09:41.995Z,75.50
2019-02-21T01:12:31.810Z,75.93
2019-02-21T01:15:22.082Z,75.79
2019-02-21T01:18:11.729Z,75.76
2019-02-21T01:21:01.176Z,75.44
2019-02-21T01:23:50.344Z,75.94
2019-02-21T01:26:39.554Z,76.83
2019-02-21T01:29:29.408Z,76.80
2019-02-21T01:32:18.955Z,76.53
2019-02-21T01:35:08.925Z,76.19
2019-02-21T01:37:58.332Z,76.20
2019-02-21T01:40:48.291Z,76.63
2019-02-21T01:43:37.441Z,76.63
2019-02-21T01:46:26.308Z,76.29
2019-02-21T01:49:15.569Z,76.52
2019-02-21T01:52:04.868Z,76.53
2019-02-21T01:54:54.514Z,76.53
2019-02-21T01:57:43.916Z,77.11
2019-02-21T02:00:33.446Z,76.87
2019-02-21T02:03:22.594Z,77.27
2019-02-21T02:06:12.172Z,77.40
2019-02-21T02:09:02.644Z,77.33
2019-02-21T02:11:52.025Z,76.96
2019-02-21T02:14:41.986Z,76.43
2019-02-21T02:17:31.489Z,76.68
2019-02-21T02:20:20.905Z,76.74
2019-02-21T02:23:10.481Z,76.43
2019-02-21T02:26:00.423Z,76.84
2019-02-21T02:28:49.943Z,77.46
2019-02-21T02:31:39.669Z,77.88
2019-02-21T02:34:28.786Z,77.46
2019-02-21T02:37:17.903Z,77.65
2019-02-21T02:40:07.942Z,77.88
2019-02-21T02:42:57.655Z,77.66
2019-02-21T02:45:46.897Z,77.55
2019-02-21T02:48:37.197Z,77.55
2019-02-21T02:51:26.497Z,77.40
2019-02-21T02:54:15.900Z,77.40
2019-02-21T02:57:05.503Z,77.12
2019-02-21T02:59:54.909Z,77.22
2019-02-21T03:02:44.348Z,77.12
2019-02-21T03:05:34.084Z,77.62
2019-02-21T03:08:23.964Z,78.05
2019-02-21T03:11:13.742Z,77.95
2019-02-21T03:14:03.030Z,77.71
2019-02-21T03:16:52.230Z,77.35
2019-02-21T03:19:41.780Z,77.29
2019-02-21T03:22:31.252Z,77.20
2019-02-21T03:25:20.738Z,77.13
2019-02-21T03:28:10.432Z,77.45
2019-02-21T03:30:59.846Z,77.71
2019-02-21T03:33:49.014Z,77.53
2019-02-21T03:36:39.371Z,77.46
2019-02-21T03:39:28.534Z,77.71
2019-02-21T03:42:18.175Z,77.78
2019-02-21T03:45:08.945Z,77.63
2019-02-21T03:47:58.983Z,77.57
2019-02-21T03:50:48.682Z,77.92
2019-02-21T03:53:38.426Z,78.08
2019-02-21T03:56:27.617Z,78.03
2019-02-21T03:59:17.408Z,78.19
2019-02-21T04:02:06.849Z,78.32
2019-02-21T04:04:56.582Z,78.28
2019-02-21T04:07:45.919Z,78.43
2019-02-21T04:10:35.910Z,78.11
2019-02-21T04:13:25.726Z,78.50
2019-02-21T04:16:15.534Z,78.51
2019-02-21T04:19:05.057Z,78.29
2019-02-21T04:21:55.112Z,78.31
2019-02-21T04:24:44.952Z,78.50
2019-02-21T04:27:34.549Z,78.57
2019-02-21T04:30:24.116Z,78.36
2019-02-21T04:33:13.327Z,78.15
2019-02-21T04:36:03.083Z,78.14
2019-02-21T04:38:52.497Z,78.27
2019-02-21T04:41:41.699Z,79.34
2019-02-21T04:44:31.727Z,79.21
2019-02-21T04:47:21.371Z,79.04
2019-02-21T04:50:11.200Z,78.93
2019-02-21T04:53:00.538Z,78.59
2019-02-21T04:55:50.272Z,78.78
2019-02-21T04:58:39.761Z,78.95
2019-02-21T05:01:30.575Z,79.28
2019-02-21T05:04:19.863Z,80.77
2019-02-21T05:07:09.488Z,81.38
2019-02-21T05:09:59.243Z,81.21
2019-02-21T05:12:48.458Z,81.90
2019-02-21T05:15:37.923Z,81.72
2019-02-21T05:18:27.505Z,81.22
2019-02-21T05:21:17.144Z,82.06
2019-02-21T05:24:08.867Z,82.05
2019-02-21T05:27:07.284Z,81.68
2019-02-21T05:29:56.390Z,81.14
2019-02-21T05:33:01.170Z,81.20
2019-02-21T05:36:03.890Z,80.29
2019-02-21T05:39:24.929Z,80.30
2019-02-21T05:42:21.214Z,80.13
2019-02-21T05:45:35.808Z,80.06
2019-02-21T05:48:33.152Z,79.83
2019-02-21T05:51:31.568Z,80.70
2019-02-21T05:54:39.951Z,80.75
2019-02-21T05:57:51.755Z,79.91
2019-02-21T06:01:00.066Z,80.22
2019-02-21T06:04:19.313Z,80.14
2019-02-21T06:07:27.265Z,81.13
2019-02-21T06:10:34.967Z,81.42
2019-02-21T06:13:46.687Z,82.03
2019-02-21T06:16:53.365Z,81.99
2019-02-21T06:20:02.199Z,80.89
2019-02-21T06:23:02.542Z,81.84
2019-02-21T06:26:10.681Z,80.86
2019-02-21T06:29:10.480Z,81.28
2019-02-21T06:32:00.026Z,81.01
2019-02-21T06:34:49.231Z,80.81
2019-02-21T06:37:38.415Z,80.69
2019-02-21T06:40:27.811Z,80.37
2019-02-21T06:43:17.447Z,80.41
2019-02-21T06:46:06.985Z,80.29
2019-02-21T06:48:56.653Z,80.48
2019-02-21T06:51:46.345Z,80.70
2019-02-21T06:54:35.522Z,80.79
2019-02-21T06:57:25.039Z,80.87
2019-02-21T07:00:14.556Z,80.87
2019-02-21T07:03:15.238Z,80.86
2019-02-21T07:05:55.509Z,80.48
2019-02-21T07:08:45.208Z,80.49
2019-02-21T07:11:34.573Z,80.32
2019-02-21T07:14:24.102Z,81.07
2019-02-21T07:17:13.532Z,81.15
2019-02-21T07:20:03.481Z,80.53
2019-02-21T07:22:52.701Z,81.25
2019-02-21T07:26:03.719Z,81.04
2019-02-21T07:28:53.377Z,80.73
2019-02-21T07:31:42.650Z,80.55
2019-02-21T07:34:32.256Z,80.23
2019-02-21T07:37:21.795Z,80.85
2019-02-21T07:40:19.675Z,81.06
2019-02-21T07:43:03.722Z,81.06
2019-02-21T07:45:53.196Z,80.91
2019-02-21T07:48:43.240Z,80.31
2019-02-21T07:51:32.703Z,80.06
2019-02-21T07:54:22.347Z,79.62
2019-02-21T07:57:11.615Z,79.08
2019-02-21T08:00:01.411Z,79.25
2019-02-21T08:02:50.589Z,79.06
2019-02-21T08:05:40.122Z,80.80
2019-02-21T08:08:32.276Z,80.29
2019-02-21T08:11:20.544Z,80.64
2019-02-21T08:14:11.220Z,80.81
2019-02-21T08:17:00.745Z,80.01
2019-02-21T08:19:50.188Z,79.25
2019-02-21T08:22:39.778Z,78.58
2019-02-21T08:25:29.230Z,78.78
2019-02-21T08:28:18.417Z,78.15
2019-02-21T08:31:07.911Z,77.91
2019-02-21T08:34:05.362Z,76.12
2019-02-21T08:36:54.642Z,75.93
2019-02-21T08:39:44.251Z,76.05
2019-02-21T08:42:33.721Z,76.31
2019-02-21T08:45:23.108Z,75.21
2019-02-21T08:48:13.506Z,73.46
2019-02-21T08:51:06.082Z,73.34
2019-02-21T08:53:54.758Z,72.62
2019-02-21T08:56:44.296Z,72.87
2019-02-21T08:59:33.750Z,71.91
2019-02-21T09:02:23.734Z,71.18
2019-02-21T09:05:13.162Z,69.53
2019-02-21T09:08:03.163Z,68.91
2019-02-21T09:10:52.929Z,68.25
2019-02-21T09:13:42.517Z,67.96
2019-02-21T09:16:32.098Z,66.20
2019-02-21T09:19:21.460Z,65.92
2019-02-21T09:22:15.253Z,65.32
2019-02-21T09:25:10.004Z,65.13
2019-02-21T09:27:59.972Z,64.38
2019-02-21T09:30:49.770Z,63.70
2019-02-21T09:33:38.996Z,63.74
2019-02-21T09:36:28.376Z,64.66
2019-02-21T09:39:17.893Z,63.97
2019-02-21T09:42:08.048Z,61.84
2019-02-21T09:44:57.320Z,61.63
2019-02-21T09:47:47.239Z,61.65
2019-02-21T09:50:36.717Z,62.93
2019-02-21T09:53:26.549Z,63.05
2019-02-21T09:56:16.000Z,62.39
2019-02-21T09:59:06.799Z,62.55
2019-02-21T10:01:57.603Z,61.33
2019-02-21T10:04:47.359Z,61.59
2019-02-21T10:07:37.627Z,61.50
2019-02-21T10:10:26.805Z,60.58
2019-02-21T10:13:16.517Z,60.23
2019-02-21T10:16:06.115Z,60.44
2019-02-21T10:18:55.857Z,59.91
2019-02-21T10:21:45.320Z,59.69
2019-02-21T10:24:35.026Z,58.85
2019-02-21T10:27:24.304Z,59.99
2019-02-21T10:30:14.721Z,59.76
2019-02-21T10:33:04.125Z,59.61
2019-02-21T10:35:53.737Z,58.85
2019-02-21T10:38:42.998Z,58.90
2019-02-21T10:41:32.921Z,58.33
2019-02-21T10:44:22.239Z,57.75
2019-02-21T10:47:12.283Z,57.06
2019-02-21T10:50:01.748Z,54.46
2019-02-21T10:52:51.646Z,55.02
2019-02-21T10:55:40.845Z,54.48
2019-02-21T10:58:30.666Z,54.00
2019-02-21T11:01:20.811Z,53.81
2019-02-21T11:04:12.840Z,52.83
2019-02-21T11:07:02.305Z,53.40
2019-02-21T11:09:52.180Z,53.46
2019-02-21T11:12:41.579Z,51.43
2019-02-21T11:15:31.613Z,52.82
2019-02-21T11:18:20.771Z,52.54
2019-02-21T11:21:13.005Z,50.37
2019-02-21T11:24:02.293Z,50.93
2019-02-21T11:26:51.934Z,49.16
2019-02-21T11:29:41.272Z,48.19
2019-02-21T11:32:30.648Z,49.60
2019-02-21T11:35:20.104Z,49.80
2019-02-21T11:38:09.722Z,50.68
2019-02-21T11:40:59.220Z,49.99
2019-02-21T11:43:49.100Z,48.37
2019-02-21T11:46:38.606Z,49.69
2019-02-21T11:49:27.945Z,49.98
2019-02-21T11:52:17.845Z,50.19
2019-02-21T11:55:08.154Z,49.30
2019-02-21T11:57:57.750Z,49.76
2019-02-21T12:00:46.981Z,48.61
2019-02-21T12:03:36.792Z,49.17
2019-02-21T12:06:25.973Z,48.79
2019-02-21T12:09:15.692Z,49.81
2019-02-21T12:12:05.274Z,49.28
2019-02-21T12:14:54.904Z,48.59
2019-02-21T12:17:44.337Z,48.25
2019-02-21T12:20:34.272Z,48.42
2019-02-21T12:23:23.408Z,49.74
2019-02-21T12:26:12.845Z,48.92
2019-02-21T12:29:02.203Z,49.05
2019-02-21T12:31:51.909Z,50.33
2019-02-21T12:34:41.061Z,50.43
2019-02-21T12:37:30.406Z,50.81
2019-02-21T12:40:19.959Z,50.87
2019-02-21T12:43:10.021Z,51.30
2019-02-21T12:46:02.247Z,50.43
2019-02-21T12:48:51.695Z,50.08
2019-02-21T12:51:41.863Z,50.86
2019-02-21T12:54:31.246Z,52.24
2019-02-21T12:57:20.438Z,52.42
2019-02-21T13:00:15.305Z,53.01
2019-02-21T13:03:05.025Z,53.46
2019-02-21T13:05:54.942Z,53.63
2019-02-21T13:08:44.594Z,53.23
2019-02-21T13:11:35.583Z,52.78
2019-02-21T13:14:25.383Z,54.18
2019-02-21T13:17:14.971Z,53.89
2019-02-21T13:20:05.776Z,54.16
2019-02-21T13:22:55.199Z,54.72
2019-02-21T13:25:44.549Z,54.90
2019-02-21T13:28:33.702Z,54.94
2019-02-21T13:31:23.200Z,55.08
2019-02-21T13:34:12.469Z,55.27
2019-02-21T13:37:02.263Z,56.23
2019-02-21T13:39:51.881Z,56.74
2019-02-21T13:42:41.248Z,57.48
2019-02-21T13:45:30.666Z,57.56
2019-02-21T13:48:20.293Z,57.55
2019-02-21T13:51:09.683Z,57.85
2019-02-21T13:53:59.433Z,58.10
2019-02-21T13:56:49.138Z,58.44
2019-02-21T13:59:39.011Z,58.44
2019-02-21T14:02:28.555Z,57.86
2019-02-21T14:05:18.130Z,57.84
2019-02-21T14:08:07.608Z,58.50
2019-02-21T14:10:57.535Z,58.53
2019-02-21T14:13:46.795Z,60.33
2019-02-21T14:16:46.120Z,61.10
2019-02-21T14:19:27.715Z,61.27
2019-02-21T14:22:17.288Z,61.36
2019-02-21T14:25:07.759Z,61.20
2019-02-21T14:27:57.167Z,61.30
2019-02-21T14:30:47.021Z,61.24
2019-02-21T14:33:36.535Z,61.73
2019-02-21T14:36:25.762Z,61.63
2019-02-21T14:39:15.781Z,61.10
2019-02-21T14:42:05.509Z,62.22
2019-02-21T14:44:54.730Z,62.32
2019-02-21T14:47:44.408Z,62.54
2019-02-21T14:50:35.962Z,61.82
2019-02-21T14:53:24.696Z,62.40
2019-02-21T14:56:13.888Z,61.61
2019-02-21T14:59:03.858Z,61.88
2019-02-21T15:01:53.918Z,61.97
2019-02-21T15:04:43.967Z,61.17
2019-02-21T15:07:33.348Z,61.07
2019-02-21T15:10:22.848Z,61.29
2019-02-21T15:13:12.202Z,61.69
2019-02-21T15:16:01.329Z,61.06
2019-02-21T15:18:50.647Z,61.27
2019-02-21T15:21:40.776Z,60.98
2019-02-21T15:24:30.024Z,60.97
2019-02-21T15:27:19.546Z,61.21
2019-02-21T15:30:11.283Z,61.41
2019-02-21T15:33:01.014Z,61.70
2019-02-21T15:35:50.124Z,61.25
2019-02-21T15:38:40.004Z,61.67
2019-02-21T15:41:29.480Z,62.49
2019-02-21T15:44:19.328Z,62.67
2019-02-21T15:47:08.896Z,62.65
2019-02-21T15:49:58.073Z,62.93
2019-02-21T15:52:47.380Z,62.97
2019-02-21T15:55:37.117Z,62.74
2019-02-21T15:58:26.560Z,63.05
2019-02-21T16:01:16.234Z,63.43
2019-02-21T16:04:06.498Z,63.62
2019-02-21T16:06:56.107Z,63.52
2019-02-21T16:09:45.797Z,63.43
2019-02-21T16:12:35.233Z,63.51
2019-02-21T16:15:25.076Z,64.17
2019-02-21T16:18:14.519Z,64.07
2019-02-21T16:21:04.618Z,64.04
2019-02-21T16:23:54.274Z,63.97
2019-02-21T16:26:43.445Z,64.18
2019-02-21T16:29:32.931Z,63.55
2019-02-21T16:32:22.486Z,63.67
2019-02-21T16:35:12.212Z,63.95
2019-02-21T16:38:01.387Z,63.40
2019-02-21T16:40:51.212Z,64.21
2019-02-21T16:43:40.867Z,63.35
2019-02-21T16:46:30.549Z,63.27
2019-02-21T16:49:19.737Z,64.24
2019-02-21T16:52:09.858Z,63.71
2019-02-21T16:54:59.003Z,64.61
2019-02-21T16:57:48.589Z,64.13
2019-02-21T17:00:50.382Z,64.69
2019-02-21T17:03:30.601Z,64.22
2019-02-21T17:06:20.420Z,64.54
2019-02-21T17:09:11.953Z,64.24
2019-02-21T17:15:39.621Z,64.15
2019-02-21T17:18:28.855Z,65.23
2019-02-21T17:21:20.921Z,65.02
2019-02-21T17:24:10.923Z,65.75
2019-02-21T17:27:00.870Z,65.67
2019-02-21T17:29:50.487Z,65.93
2019-02-21T17:32:40.010Z,65.81
2019-02-21T17:35:29.624Z,66.03
2019-02-21T17:38:18.724Z,65.91
2019-02-21T17:41:08.194Z,65.68
2019-02-21T17:43:57.288Z,66.20
2019-02-21T17:46:46.501Z,66.43
2019-02-21T17:49:36.437Z,66.18
2019-02-21T17:55:13.718Z,67.12
2019-02-21T17:58:03.096Z,67.18
2019-02-21T18:00:52.256Z,67.25
2019-02-21T18:03:41.625Z,66.74
2019-02-21T18:06:31.787Z,67.73
2019-02-21T18:09:21.273Z,67.32
2019-02-21T18:12:11.175Z,66.87
2019-02-21T18:15:00.731Z,66.98
2019-02-21T18:17:50.337Z,67.87
2019-02-21T18:20:39.687Z,67.61
2019-02-21T18:23:29.676Z,68.07
2019-02-21T18:26:20.058Z,67.97
2019-02-21T18:29:12.472Z,67.90
2019-02-21T18:32:02.218Z,68.00
2019-02-21T18:34:51.646Z,68.34
2019-02-21T18:37:47.291Z,68.03
2019-02-21T18:40:32.000Z,68.27
2019-02-21T18:43:21.482Z,68.22
2019-02-21T18:46:11.028Z,68.77
2019-02-21T18:49:00.652Z,68.49
2019-02-21T18:51:50.384Z,69.21
2019-02-21T18:54:39.974Z,69.46
2019-02-21T18:57:29.680Z,69.57
2019-02-21T19:00:20.345Z,68.81
2019-02-21T19:03:10.311Z,68.66
2019-02-21T19:05:59.698Z,69.38
2019-02-21T19:08:49.125Z,69.33
2019-02-21T19:11:38.733Z,69.53
2019-02-21T19:14:27.988Z,69.00
2019-02-21T19:17:17.503Z,69.04
2019-02-21T19:20:08.936Z,69.29
2019-02-21T19:22:58.844Z,69.11
2019-02-21T19:25:48.350Z,68.92
2019-02-21T19:28:37.906Z,69.41
2019-02-21T19:31:27.864Z,69.49
2019-02-21T19:34:17.246Z,69.55
2019-02-21T19:37:07.124Z,70.01
2019-02-21T19:39:56.452Z,69.85
2019-02-21T19:42:49.136Z,69.60
2019-02-21T19:45:38.451Z,69.57
2019-02-21T19:48:28.213Z,70.05
2019-02-21T19:51:17.844Z,69.52
2019-02-21T19:54:10.371Z,69.93
2019-02-21T19:56:59.790Z,70.21
2019-02-21T19:59:49.362Z,69.42
2019-02-21T20:02:39.063Z,70.60
2019-02-21T20:05:29.454Z,70.03
2019-02-21T20:08:21.572Z,70.08
2019-02-21T20:11:10.331Z,70.12
2019-02-21T20:13:59.881Z,70.24
2019-02-21T20:16:49.216Z,70.10
2019-02-21T20:19:39.974Z,70.31
2019-02-21T20:22:30.102Z,70.53
2019-02-21T20:25:20.636Z,70.23
2019-02-21T20:28:10.966Z,70.36
2019-02-21T20:31:00.555Z,70.15
2019-02-21T20:33:50.521Z,70.31
2019-02-21T20:36:50.472Z,70.51
2019-02-21T20:39:30.957Z,70.72
2019-02-21T20:42:20.209Z,70.18
2019-02-21T20:45:10.302Z,69.98
2019-02-21T20:47:59.785Z,69.68
2019-02-21T20:50:56.888Z,70.08
2019-02-21T20:53:40.584Z,69.46
2019-02-21T20:56:30.108Z,69.77
2019-02-21T20:59:19.954Z,69.37
2019-02-21T21:02:11.296Z,70.50
2019-02-21T21:05:00.773Z,69.76
2019-02-21T21:07:50.393Z,70.13
2019-02-21T21:10:40.806Z,69.67
2019-02-21T21:13:30.432Z,69.86
2019-02-21T21:16:20.482Z,70.17
2019-02-21T21:19:12.744Z,69.86
2019-02-21T21:22:01.949Z,69.50
2019-02-21T21:24:51.957Z,69.54
2019-02-21T21:27:41.464Z,69.91
2019-02-21T21:30:30.901Z,69.91
2019-02-21T21:33:20.210Z,70.36
2019-02-21T21:36:09.559Z,69.96
2019-02-21T21:38:58.971Z,70.00
2019-02-21T21:41:48.189Z,70.10
2019-02-21T21:44:37.344Z,69.82
2019-02-21T21:47:27.297Z,70.04
2019-02-21T21:50:17.291Z,70.12
2019-02-21T21:53:06.928Z,70.05
2019-02-21T21:55:56.241Z,70.17
2019-02-21T21:58:45.836Z,69.95
2019-02-21T22:01:35.345Z,69.42
2019-02-21T22:04:25.282Z,69.51
2019-02-21T22:07:14.788Z,69.93
2019-02-21T22:10:05.309Z,69.67
2019-02-21T22:12:54.998Z,69.82
2019-02-21T22:15:44.933Z,69.97
2019-02-21T22:18:34.319Z,69.76
2019-02-21T22:21:24.169Z,69.44
2019-02-21T22:24:13.415Z,69.62
2019-02-21T22:27:03.681Z,70.53
2019-02-21T22:29:53.093Z,70.39
2019-02-21T22:32:43.072Z,70.15
2019-02-21T22:35:32.552Z,69.97
2019-02-21T22:38:21.884Z,69.84
2019-02-21T22:41:11.109Z,70.00
2019-02-21T22:44:00.695Z,69.72
2019-02-21T22:46:49.900Z,69.61
2019-02-21T22:49:39.559Z,69.39
2019-02-21T22:52:28.735Z,69.62
2019-02-21T22:55:18.492Z,69.87
2019-02-21T22:58:08.072Z,69.91
2019-02-21T23:01:23.592Z,69.79
2019-02-21T23:04:51.503Z,69.51
2019-02-21T23:07:48.053Z,69.64
2019-02-21T23:10:37.535Z,69.30
2019-02-21T23:13:26.660Z,69.28
2019-02-21T23:16:16.478Z,69.22
2019-02-21T23:19:07.815Z,69.51
2019-02-21T23:21:57.415Z,68.85
2019-02-21T23:24:46.639Z,69.04
2019-02-21T23:27:36.668Z,69.03
2019-02-21T23:30:25.969Z,68.79
2019-02-21T23:33:15.090Z,68.59
2019-02-21T23:36:04.728Z,68.89
2019-02-21T23:38:54.035Z,68.96
2019-02-21T23:41:43.640Z,68.33
2019-02-21T23:44:33.485Z,68.90
2019-02-21T23:47:23.072Z,68.65
2019-02-21T23:50:13.066Z,68.58
2019-02-21T23:53:02.294Z,68.92
2019-02-21T23:55:52.180Z,68.95
2019-02-21T23:58:41.681Z,68.94
